sensor_id;sensor_type;location;lat;lon;timestamp;P1;durP1;ratioP1;P2;durP2;ratioP2
74650;SDS011;63169;46.042;14.592;2023-03-15T00:01:55;17.45;;;9.48;;
74650;SDS011;63169;46.042;14.592;2023-03-15T00:04:20;18.42;;;10.43;;
74650;SDS011;63169;46.042;14.592;2023-03-15T00:06:46;18.00;;;11.77;;
74650;SDS011;63169;46.042;14.592;2023-03-15T00:09:12;17.73;;;10.52;;
74650;SDS011;63169;46.042;14.592;2023-03-15T00:11:37;17.27;;;11.50;;
74650;SDS011;63169;46.042;14.592;2023-03-15T00:14:02;16.02;;;10.82;;
74650;SDS011;63169;46.042;14.592;2023-03-15T00:16:29;18.20;;;10.48;;
74650;SDS011;63169;46.042;14.592;2023-03-15T00:18:56;19.48;;;11.50;;
74650;SDS011;63169;46.042;14.592;2023-03-15T00:21:22;19.33;;;11.38;;
74650;SDS011;63169;46.042;14.592;2023-03-15T00:23:48;15.77;;;11.85;;
74650;SDS011;63169;46.042;14.592;2023-03-15T00:26:13;16.40;;;10.43;;
74650;SDS011;63169;46.042;14.592;2023-03-15T00:28:39;16.88;;;11.23;;
74650;SDS011;63169;46.042;14.592;2023-03-15T00:31:11;15.57;;;9.02;;
74650;SDS011;63169;46.042;14.592;2023-03-15T00:33:38;19.42;;;10.55;;
74650;SDS011;63169;46.042;14.592;2023-03-15T00:36:05;15.57;;;10.02;;
74650;SDS011;63169;46.042;14.592;2023-03-15T00:38:32;17.20;;;11.63;;
74650;SDS011;63169;46.042;14.592;2023-03-15T00:41:09;16.83;;;9.77;;
74650;SDS011;63169;46.042;14.592;2023-03-15T00:43:36;17.95;;;9.55;;
74650;SDS011;63169;46.042;14.592;2023-03-15T00:46:02;21.63;;;11.75;;
74650;SDS011;63169;46.042;14.592;2023-03-15T00:48:31;14.80;;;9.68;;
74650;SDS011;63169;46.042;14.592;2023-03-15T00:51:07;16.67;;;9.77;;
74650;SDS011;63169;46.042;14.592;2023-03-15T00:53:38;15.57;;;8.10;;
74650;SDS011;63169;46.042;14.592;2023-03-15T00:56:08;18.70;;;8.90;;
74650;SDS011;63169;46.042;14.592;2023-03-15T00:58:35;15.55;;;8.82;;
74650;SDS011;63169;46.042;14.592;2023-03-15T01:01:08;13.57;;;7.90;;
74650;SDS011;63169;46.042;14.592;2023-03-15T01:03:38;14.07;;;7.72;;
74650;SDS011;63169;46.042;14.592;2023-03-15T01:06:10;13.88;;;8.88;;
74650;SDS011;63169;46.042;14.592;2023-03-15T01:08:37;14.13;;;8.07;;
74650;SDS011;63169;46.042;14.592;2023-03-15T01:11:04;17.48;;;8.48;;
74650;SDS011;63169;46.042;14.592;2023-03-15T01:13:30;18.17;;;9.23;;
74650;SDS011;63169;46.042;14.592;2023-03-15T01:15:56;26.40;;;11.05;;
74650;SDS011;63169;46.042;14.592;2023-03-15T01:18:21;15.40;;;9.70;;
74650;SDS011;63169;46.042;14.592;2023-03-15T01:20:47;17.83;;;9.95;;
74650;SDS011;63169;46.042;14.592;2023-03-15T01:23:12;17.90;;;10.55;;
74650;SDS011;63169;46.042;14.592;2023-03-15T01:25:38;18.90;;;10.13;;
74650;SDS011;63169;46.042;14.592;2023-03-15T01:28:03;15.88;;;8.55;;
74650;SDS011;63169;46.042;14.592;2023-03-15T01:30:29;16.33;;;9.45;;
74650;SDS011;63169;46.042;14.592;2023-03-15T01:32:54;15.68;;;8.95;;
74650;SDS011;63169;46.042;14.592;2023-03-15T01:35:19;16.23;;;8.57;;
74650;SDS011;63169;46.042;14.592;2023-03-15T01:37:47;16.75;;;10.68;;
74650;SDS011;63169;46.042;14.592;2023-03-15T01:40:13;16.08;;;9.32;;
74650;SDS011;63169;46.042;14.592;2023-03-15T01:48:42;11.57;;;7.50;;
74650;SDS011;63169;46.042;14.592;2023-03-15T01:51:32;11.18;;;6.70;;
74650;SDS011;63169;46.042;14.592;2023-03-15T01:54:03;11.13;;;7.03;;
74650;SDS011;63169;46.042;14.592;2023-03-15T01:56:36;13.50;;;7.32;;
74650;SDS011;63169;46.042;14.592;2023-03-15T01:59:04;12.95;;;7.78;;
74650;SDS011;63169;46.042;14.592;2023-03-15T02:01:32;12.38;;;6.43;;
74650;SDS011;63169;46.042;14.592;2023-03-15T02:04:02;10.90;;;6.40;;
74650;SDS011;63169;46.042;14.592;2023-03-15T02:06:31;9.25;;;5.30;;
74650;SDS011;63169;46.042;14.592;2023-03-15T02:09:00;13.13;;;5.63;;
74650;SDS011;63169;46.042;14.592;2023-03-15T02:11:27;10.00;;;5.60;;
74650;SDS011;63169;46.042;14.592;2023-03-15T02:13:53;11.45;;;5.82;;
74650;SDS011;63169;46.042;14.592;2023-03-15T02:16:21;9.50;;;4.70;;
74650;SDS011;63169;46.042;14.592;2023-03-15T02:18:47;10.40;;;5.20;;
74650;SDS011;63169;46.042;14.592;2023-03-15T02:24:18;8.98;;;4.85;;
74650;SDS011;63169;46.042;14.592;2023-03-15T02:26:55;10.40;;;5.05;;
74650;SDS011;63169;46.042;14.592;2023-03-15T02:29:22;9.10;;;4.45;;
74650;SDS011;63169;46.042;14.592;2023-03-15T02:31:48;10.82;;;4.18;;
74650;SDS011;63169;46.042;14.592;2023-03-15T02:34:14;10.00;;;5.07;;
74650;SDS011;63169;46.042;14.592;2023-03-15T02:36:39;8.10;;;5.45;;
74650;SDS011;63169;46.042;14.592;2023-03-15T02:39:12;8.38;;;5.13;;
74650;SDS011;63169;46.042;14.592;2023-03-15T02:41:42;9.15;;;4.95;;
74650;SDS011;63169;46.042;14.592;2023-03-15T02:44:13;8.98;;;4.97;;
74650;SDS011;63169;46.042;14.592;2023-03-15T02:46:41;8.18;;;4.85;;
74650;SDS011;63169;46.042;14.592;2023-03-15T02:49:08;8.40;;;4.95;;
74650;SDS011;63169;46.042;14.592;2023-03-15T02:51:34;8.43;;;5.15;;
74650;SDS011;63169;46.042;14.592;2023-03-15T02:54:00;10.88;;;5.43;;
74650;SDS011;63169;46.042;14.592;2023-03-15T02:56:25;8.48;;;4.78;;
74650;SDS011;63169;46.042;14.592;2023-03-15T02:58:51;9.38;;;4.13;;
74650;SDS011;63169;46.042;14.592;2023-03-15T03:01:17;8.80;;;4.68;;
74650;SDS011;63169;46.042;14.592;2023-03-15T03:03:43;12.25;;;5.05;;
74650;SDS011;63169;46.042;14.592;2023-03-15T03:08:35;7.47;;;5.18;;
74650;SDS011;63169;46.042;14.592;2023-03-15T03:11:01;7.35;;;4.70;;
74650;SDS011;63169;46.042;14.592;2023-03-15T03:13:26;6.00;;;3.75;;
74650;SDS011;63169;46.042;14.592;2023-03-15T03:15:52;10.18;;;8.85;;
74650;SDS011;63169;46.042;14.592;2023-03-15T03:18:24;9.77;;;4.30;;
74650;SDS011;63169;46.042;14.592;2023-03-15T03:20:50;11.43;;;4.65;;
74650;SDS011;63169;46.042;14.592;2023-03-15T03:23:15;6.88;;;3.50;;
74650;SDS011;63169;46.042;14.592;2023-03-15T03:25:41;6.45;;;3.28;;
74650;SDS011;63169;46.042;14.592;2023-03-15T03:28:09;5.50;;;1.95;;
74650;SDS011;63169;46.042;14.592;2023-03-15T03:30:34;4.38;;;2.17;;
74650;SDS011;63169;46.042;14.592;2023-03-15T03:33:00;6.50;;;1.70;;
74650;SDS011;63169;46.042;14.592;2023-03-15T03:35:25;7.13;;;3.05;;
74650;SDS011;63169;46.042;14.592;2023-03-15T03:37:51;10.95;;;2.22;;
74650;SDS011;63169;46.042;14.592;2023-03-15T03:40:17;5.30;;;1.27;;
74650;SDS011;63169;46.042;14.592;2023-03-15T03:42:43;5.00;;;2.40;;
74650;SDS011;63169;46.042;14.592;2023-03-15T03:45:08;4.97;;;1.48;;
74650;SDS011;63169;46.042;14.592;2023-03-15T03:47:34;6.18;;;1.42;;
74650;SDS011;63169;46.042;14.592;2023-03-15T03:49:59;3.53;;;1.45;;
74650;SDS011;63169;46.042;14.592;2023-03-15T03:52:24;3.92;;;1.85;;
74650;SDS011;63169;46.042;14.592;2023-03-15T03:54:50;3.25;;;0.98;;
74650;SDS011;63169;46.042;14.592;2023-03-15T03:57:15;3.28;;;1.08;;
74650;SDS011;63169;46.042;14.592;2023-03-15T03:59:41;3.33;;;1.05;;
74650;SDS011;63169;46.042;14.592;2023-03-15T04:02:06;3.53;;;1.92;;
74650;SDS011;63169;46.042;14.592;2023-03-15T04:04:31;2.38;;;1.27;;
74650;SDS011;63169;46.042;14.592;2023-03-15T04:06:57;3.63;;;1.65;;
74650;SDS011;63169;46.042;14.592;2023-03-15T04:09:22;5.20;;;1.88;;
74650;SDS011;63169;46.042;14.592;2023-03-15T04:11:49;3.70;;;3.13;;
74650;SDS011;63169;46.042;14.592;2023-03-15T04:14:14;3.45;;;1.13;;
74650;SDS011;63169;46.042;14.592;2023-03-15T04:16:39;2.85;;;1.17;;
74650;SDS011;63169;46.042;14.592;2023-03-15T04:19:05;3.78;;;0.98;;
74650;SDS011;63169;46.042;14.592;2023-03-15T04:21:31;2.47;;;1.05;;
74650;SDS011;63169;46.042;14.592;2023-03-15T04:24:00;3.72;;;1.48;;
74650;SDS011;63169;46.042;14.592;2023-03-15T04:26:28;3.13;;;0.88;;
74650;SDS011;63169;46.042;14.592;2023-03-15T04:28:55;2.40;;;2.00;;
74650;SDS011;63169;46.042;14.592;2023-03-15T04:31:21;3.58;;;1.35;;
74650;SDS011;63169;46.042;14.592;2023-03-15T04:33:51;3.13;;;1.13;;
74650;SDS011;63169;46.042;14.592;2023-03-15T04:36:17;2.97;;;0.98;;
74650;SDS011;63169;46.042;14.592;2023-03-15T04:38:46;2.88;;;1.48;;
74650;SDS011;63169;46.042;14.592;2023-03-15T04:41:15;2.88;;;1.75;;
74650;SDS011;63169;46.042;14.592;2023-03-15T04:43:41;2.00;;;0.35;;
74650;SDS011;63169;46.042;14.592;2023-03-15T04:46:07;2.50;;;0.98;;
74650;SDS011;63169;46.042;14.592;2023-03-15T04:48:33;1.52;;;0.82;;
74650;SDS011;63169;46.042;14.592;2023-03-15T04:50:58;2.55;;;0.77;;
74650;SDS011;63169;46.042;14.592;2023-03-15T04:53:24;4.85;;;1.33;;
74650;SDS011;63169;46.042;14.592;2023-03-15T04:55:50;2.40;;;0.85;;
74650;SDS011;63169;46.042;14.592;2023-03-15T04:58:15;3.97;;;1.77;;
74650;SDS011;63169;46.042;14.592;2023-03-15T05:00:41;2.30;;;1.35;;
74650;SDS011;63169;46.042;14.592;2023-03-15T05:03:07;2.45;;;0.73;;
74650;SDS011;63169;46.042;14.592;2023-03-15T05:05:32;3.50;;;1.27;;
74650;SDS011;63169;46.042;14.592;2023-03-15T05:07:58;4.45;;;1.83;;
74650;SDS011;63169;46.042;14.592;2023-03-15T05:10:23;5.32;;;2.05;;
74650;SDS011;63169;46.042;14.592;2023-03-15T05:12:49;3.47;;;1.20;;
74650;SDS011;63169;46.042;14.592;2023-03-15T05:15:15;3.53;;;1.45;;
74650;SDS011;63169;46.042;14.592;2023-03-15T05:17:43;6.97;;;3.15;;
74650;SDS011;63169;46.042;14.592;2023-03-15T05:20:10;2.17;;;0.68;;
74650;SDS011;63169;46.042;14.592;2023-03-15T05:25:02;1.05;;;0.22;;
74650;SDS011;63169;46.042;14.592;2023-03-15T05:27:28;2.53;;;0.65;;
74650;SDS011;63169;46.042;14.592;2023-03-15T05:29:54;1.45;;;0.30;;
74650;SDS011;63169;46.042;14.592;2023-03-15T05:32:19;1.42;;;0.25;;
74650;SDS011;63169;46.042;14.592;2023-03-15T05:34:50;1.10;;;0.88;;
74650;SDS011;63169;46.042;14.592;2023-03-15T05:37:18;1.20;;;1.02;;
74650;SDS011;63169;46.042;14.592;2023-03-15T05:39:45;2.28;;;0.98;;
74650;SDS011;63169;46.042;14.592;2023-03-15T05:42:10;1.10;;;0.50;;
74650;SDS011;63169;46.042;14.592;2023-03-15T05:44:36;3.33;;;1.60;;
74650;SDS011;63169;46.042;14.592;2023-03-15T05:47:01;2.72;;;1.38;;
74650;SDS011;63169;46.042;14.592;2023-03-15T05:49:26;2.22;;;1.10;;
74650;SDS011;63169;46.042;14.592;2023-03-15T05:51:52;2.55;;;1.95;;
74650;SDS011;63169;46.042;14.592;2023-03-15T05:54:17;2.08;;;0.70;;
74650;SDS011;63169;46.042;14.592;2023-03-15T05:56:42;2.10;;;0.40;;
74650;SDS011;63169;46.042;14.592;2023-03-15T05:59:08;1.55;;;1.00;;
74650;SDS011;63169;46.042;14.592;2023-03-15T06:01:33;0.90;;;0.17;;
74650;SDS011;63169;46.042;14.592;2023-03-15T06:03:58;0.77;;;0.50;;
74650;SDS011;63169;46.042;14.592;2023-03-15T06:06:24;1.20;;;0.52;;
74650;SDS011;63169;46.042;14.592;2023-03-15T06:08:49;0.45;;;0.10;;
74650;SDS011;63169;46.042;14.592;2023-03-15T06:11:14;1.30;;;0.28;;
74650;SDS011;63169;46.042;14.592;2023-03-15T06:13:40;1.05;;;0.30;;
74650;SDS011;63169;46.042;14.592;2023-03-15T06:16:05;0.90;;;0.17;;
74650;SDS011;63169;46.042;14.592;2023-03-15T06:18:31;1.70;;;0.82;;
74650;SDS011;63169;46.042;14.592;2023-03-15T06:20:56;0.85;;;0.17;;
74650;SDS011;63169;46.042;14.592;2023-03-15T06:23:21;1.38;;;0.77;;
74650;SDS011;63169;46.042;14.592;2023-03-15T06:25:47;1.52;;;0.43;;
74650;SDS011;63169;46.042;14.592;2023-03-15T06:28:12;0.82;;;0.10;;
74650;SDS011;63169;46.042;14.592;2023-03-15T06:30:38;0.77;;;0.28;;
74650;SDS011;63169;46.042;14.592;2023-03-15T06:33:04;1.58;;;0.35;;
74650;SDS011;63169;46.042;14.592;2023-03-15T06:35:30;1.10;;;0.43;;
74650;SDS011;63169;46.042;14.592;2023-03-15T06:37:55;1.38;;;0.75;;
74650;SDS011;63169;46.042;14.592;2023-03-15T06:40:23;64.55;;;19.30;;
74650;SDS011;63169;46.042;14.592;2023-03-15T06:42:49;10.52;;;3.00;;
74650;SDS011;63169;46.042;14.592;2023-03-15T06:45:14;39.70;;;13.45;;
74650;SDS011;63169;46.042;14.592;2023-03-15T06:47:40;10.02;;;3.40;;
74650;SDS011;63169;46.042;14.592;2023-03-15T06:50:06;3.83;;;0.82;;
74650;SDS011;63169;46.042;14.592;2023-03-15T06:52:32;2.50;;;0.93;;
74650;SDS011;63169;46.042;14.592;2023-03-15T06:54:57;2.83;;;0.60;;
74650;SDS011;63169;46.042;14.592;2023-03-15T06:57:23;1.42;;;0.30;;
74650;SDS011;63169;46.042;14.592;2023-03-15T06:59:48;2.17;;;0.47;;
74650;SDS011;63169;46.042;14.592;2023-03-15T07:02:15;4.30;;;0.57;;
74650;SDS011;63169;46.042;14.592;2023-03-15T07:04:41;2.70;;;0.93;;
74650;SDS011;63169;46.042;14.592;2023-03-15T07:07:08;4.03;;;1.17;;
74650;SDS011;63169;46.042;14.592;2023-03-15T07:09:34;3.28;;;1.15;;
74650;SDS011;63169;46.042;14.592;2023-03-15T07:12:00;3.08;;;1.92;;
74650;SDS011;63169;46.042;14.592;2023-03-15T07:14:25;6.03;;;3.33;;
74650;SDS011;63169;46.042;14.592;2023-03-15T07:16:51;3.28;;;1.23;;
74650;SDS011;63169;46.042;14.592;2023-03-15T07:19:16;1.33;;;0.17;;
74650;SDS011;63169;46.042;14.592;2023-03-15T07:21:41;1.70;;;1.15;;
74650;SDS011;63169;46.042;14.592;2023-03-15T07:24:07;1.85;;;1.27;;
74650;SDS011;63169;46.042;14.592;2023-03-15T07:26:32;2.15;;;1.42;;
74650;SDS011;63169;46.042;14.592;2023-03-15T07:28:57;1.30;;;0.47;;
74650;SDS011;63169;46.042;14.592;2023-03-15T07:31:23;40.80;;;25.77;;
74650;SDS011;63169;46.042;14.592;2023-03-15T07:33:48;19.27;;;14.30;;
74650;SDS011;63169;46.042;14.592;2023-03-15T07:36:13;2.63;;;0.50;;
74650;SDS011;63169;46.042;14.592;2023-03-15T07:38:39;3.55;;;0.75;;
74650;SDS011;63169;46.042;14.592;2023-03-15T07:41:05;2.97;;;0.85;;
74650;SDS011;63169;46.042;14.592;2023-03-15T07:43:32;1.65;;;0.70;;
74650;SDS011;63169;46.042;14.592;2023-03-15T07:45:57;2.38;;;0.30;;
74650;SDS011;63169;46.042;14.592;2023-03-15T07:48:23;1.67;;;0.47;;
74650;SDS011;63169;46.042;14.592;2023-03-15T07:50:48;2.53;;;0.52;;
74650;SDS011;63169;46.042;14.592;2023-03-15T07:53:14;2.08;;;0.47;;
74650;SDS011;63169;46.042;14.592;2023-03-15T07:55:40;2.40;;;0.35;;
74650;SDS011;63169;46.042;14.592;2023-03-15T07:58:05;1.92;;;0.98;;
74650;SDS011;63169;46.042;14.592;2023-03-15T08:00:33;1.88;;;0.60;;
74650;SDS011;63169;46.042;14.592;2023-03-15T08:02:59;3.28;;;0.70;;
74650;SDS011;63169;46.042;14.592;2023-03-15T08:05:24;3.80;;;1.23;;
74650;SDS011;63169;46.042;14.592;2023-03-15T08:07:50;5.25;;;1.65;;
74650;SDS011;63169;46.042;14.592;2023-03-15T08:10:16;2.03;;;0.55;;
74650;SDS011;63169;46.042;14.592;2023-03-15T08:12:42;1.92;;;0.40;;
74650;SDS011;63169;46.042;14.592;2023-03-15T08:15:11;1.35;;;0.32;;
74650;SDS011;63169;46.042;14.592;2023-03-15T08:17:38;2.47;;;0.68;;
74650;SDS011;63169;46.042;14.592;2023-03-15T08:20:04;2.50;;;0.90;;
74650;SDS011;63169;46.042;14.592;2023-03-15T08:22:31;2.40;;;0.90;;
74650;SDS011;63169;46.042;14.592;2023-03-15T08:24:57;1.27;;;0.57;;
74650;SDS011;63169;46.042;14.592;2023-03-15T08:27:25;2.97;;;1.92;;
74650;SDS011;63169;46.042;14.592;2023-03-15T08:29:51;3.97;;;0.98;;
74650;SDS011;63169;46.042;14.592;2023-03-15T08:32:19;2.35;;;0.95;;
74650;SDS011;63169;46.042;14.592;2023-03-15T08:43:27;2.25;;;1.25;;
74650;SDS011;63169;46.042;14.592;2023-03-15T08:45:52;1.88;;;0.95;;
74650;SDS011;63169;46.042;14.592;2023-03-15T08:48:18;1.55;;;0.68;;
74650;SDS011;63169;46.042;14.592;2023-03-15T08:50:43;1.77;;;0.75;;
74650;SDS011;63169;46.042;14.592;2023-03-15T08:53:09;2.90;;;0.82;;
74650;SDS011;63169;46.042;14.592;2023-03-15T08:55:35;3.88;;;0.25;;
74650;SDS011;63169;46.042;14.592;2023-03-15T08:58:01;1.65;;;0.30;;
74650;SDS011;63169;46.042;14.592;2023-03-15T09:00:30;1.75;;;0.88;;
74650;SDS011;63169;46.042;14.592;2023-03-15T09:02:55;0.93;;;0.60;;
74650;SDS011;63169;46.042;14.592;2023-03-15T09:05:21;3.63;;;0.40;;
74650;SDS011;63169;46.042;14.592;2023-03-15T09:07:48;1.05;;;0.38;;
74650;SDS011;63169;46.042;14.592;2023-03-15T09:10:17;4.45;;;0.25;;
74650;SDS011;63169;46.042;14.592;2023-03-15T09:15:09;1.48;;;0.98;;
74650;SDS011;63169;46.042;14.592;2023-03-15T09:17:36;1.70;;;0.70;;
74650;SDS011;63169;46.042;14.592;2023-03-15T09:20:05;3.13;;;0.20;;
74650;SDS011;63169;46.042;14.592;2023-03-15T09:22:36;2.42;;;0.28;;
74650;SDS011;63169;46.042;14.592;2023-03-15T09:25:02;2.13;;;0.82;;
74650;SDS011;63169;46.042;14.592;2023-03-15T09:27:31;2.25;;;0.10;;
74650;SDS011;63169;46.042;14.592;2023-03-15T09:29:57;3.17;;;1.52;;
74650;SDS011;63169;46.042;14.592;2023-03-15T09:32:23;2.25;;;0.50;;
74650;SDS011;63169;46.042;14.592;2023-03-15T09:34:48;4.38;;;1.23;;
74650;SDS011;63169;46.042;14.592;2023-03-15T09:37:15;8.05;;;0.50;;
74650;SDS011;63169;46.042;14.592;2023-03-15T09:39:40;4.07;;;0.22;;
74650;SDS011;63169;46.042;14.592;2023-03-15T09:42:14;2.08;;;0.32;;
74650;SDS011;63169;46.042;14.592;2023-03-15T09:44:43;2.30;;;0.10;;
74650;SDS011;63169;46.042;14.592;2023-03-15T09:49:48;4.25;;;0.60;;
74650;SDS011;63169;46.042;14.592;2023-03-15T09:57:36;17.95;;;1.35;;
74650;SDS011;63169;46.042;14.592;2023-03-15T10:00:06;7.60;;;1.13;;
74650;SDS011;63169;46.042;14.592;2023-03-15T10:02:38;3.15;;;0.28;;
74650;SDS011;63169;46.042;14.592;2023-03-15T10:05:12;3.33;;;0.30;;
74650;SDS011;63169;46.042;14.592;2023-03-15T10:07:40;2.28;;;0.75;;
74650;SDS011;63169;46.042;14.592;2023-03-15T10:10:21;4.82;;;0.40;;
74650;SDS011;63169;46.042;14.592;2023-03-15T10:12:51;1.17;;;0.20;;
74650;SDS011;63169;46.042;14.592;2023-03-15T10:15:41;2.70;;;0.30;;
74650;SDS011;63169;46.042;14.592;2023-03-15T10:20:52;5.10;;;0.22;;
74650;SDS011;63169;46.042;14.592;2023-03-15T10:26:13;19.77;;;3.28;;
74650;SDS011;63169;46.042;14.592;2023-03-15T10:28:39;6.60;;;0.43;;
74650;SDS011;63169;46.042;14.592;2023-03-15T10:31:10;4.53;;;0.20;;
74650;SDS011;63169;46.042;14.592;2023-03-15T10:33:38;19.45;;;0.93;;
74650;SDS011;63169;46.042;14.592;2023-03-15T10:36:14;15.25;;;0.95;;
74650;SDS011;63169;46.042;14.592;2023-03-15T10:39:08;2.10;;;0.17;;
74650;SDS011;63169;46.042;14.592;2023-03-15T10:41:44;4.82;;;0.57;;
74650;SDS011;63169;46.042;14.592;2023-03-15T10:44:21;7.25;;;1.25;;
74650;SDS011;63169;46.042;14.592;2023-03-15T10:49:34;3.45;;;0.13;;
74650;SDS011;63169;46.042;14.592;2023-03-15T10:54:48;4.03;;;0.63;;
74650;SDS011;63169;46.042;14.592;2023-03-15T10:57:15;2.88;;;0.35;;
74650;SDS011;63169;46.042;14.592;2023-03-15T10:59:53;8.05;;;0.43;;
74650;SDS011;63169;46.042;14.592;2023-03-15T11:02:22;1.65;;;0.32;;
74650;SDS011;63169;46.042;14.592;2023-03-15T11:07:57;4.35;;;0.40;;
74650;SDS011;63169;46.042;14.592;2023-03-15T11:10:25;4.07;;;0.50;;
74650;SDS011;63169;46.042;14.592;2023-03-15T11:13:08;8.05;;;0.98;;
74650;SDS011;63169;46.042;14.592;2023-03-15T11:15:37;6.22;;;0.40;;
74650;SDS011;63169;46.042;14.592;2023-03-15T11:18:03;6.63;;;0.30;;
74650;SDS011;63169;46.042;14.592;2023-03-15T11:20:30;8.45;;;0.55;;
74650;SDS011;63169;46.042;14.592;2023-03-15T11:22:59;12.75;;;1.00;;
74650;SDS011;63169;46.042;14.592;2023-03-15T11:25:30;3.45;;;0.15;;
74650;SDS011;63169;46.042;14.592;2023-03-15T11:27:57;5.88;;;0.40;;
74650;SDS011;63169;46.042;14.592;2023-03-15T11:30:27;2.25;;;0.25;;
74650;SDS011;63169;46.042;14.592;2023-03-15T11:32:53;4.70;;;0.98;;
74650;SDS011;63169;46.042;14.592;2023-03-15T11:37:49;14.55;;;1.33;;
74650;SDS011;63169;46.042;14.592;2023-03-15T11:40:21;6.72;;;0.80;;
74650;SDS011;63169;46.042;14.592;2023-03-15T11:43:00;12.65;;;0.70;;
74650;SDS011;63169;46.042;14.592;2023-03-15T11:48:06;5.32;;;0.57;;
74650;SDS011;63169;46.042;14.592;2023-03-15T11:50:37;9.65;;;0.35;;
74650;SDS011;63169;46.042;14.592;2023-03-15T11:53:02;10.05;;;0.32;;
74650;SDS011;63169;46.042;14.592;2023-03-15T11:55:31;10.50;;;0.75;;
74650;SDS011;63169;46.042;14.592;2023-03-15T11:57:56;6.68;;;0.93;;
74650;SDS011;63169;46.042;14.592;2023-03-15T12:01:02;6.57;;;1.20;;
74650;SDS011;63169;46.042;14.592;2023-03-15T12:08:49;6.45;;;1.00;;
74650;SDS011;63169;46.042;14.592;2023-03-15T12:16:22;0.50;;;0.20;;
74650;SDS011;63169;46.042;14.592;2023-03-15T12:18:50;0.47;;;0.03;;
74650;SDS011;63169;46.042;14.592;2023-03-15T12:21:18;1.33;;;0.13;;
74650;SDS011;63169;46.042;14.592;2023-03-15T12:23:47;0.82;;;0.10;;
74650;SDS011;63169;46.042;14.592;2023-03-15T12:26:22;1.45;;;0.30;;
74650;SDS011;63169;46.042;14.592;2023-03-15T12:29:06;0.90;;;0.32;;
74650;SDS011;63169;46.042;14.592;2023-03-15T12:39:47;13.07;;;3.70;;
74650;SDS011;63169;46.042;14.592;2023-03-15T12:55:52;0.60;;;0.17;;
74650;SDS011;63169;46.042;14.592;2023-03-15T12:58:19;0.93;;;0.20;;
74650;SDS011;63169;46.042;14.592;2023-03-15T13:00:49;2.15;;;0.20;;
74650;SDS011;63169;46.042;14.592;2023-03-15T13:03:20;6.50;;;0.30;;
74650;SDS011;63169;46.042;14.592;2023-03-15T13:05:58;2.25;;;0.47;;
74650;SDS011;63169;46.042;14.592;2023-03-15T13:08:30;0.68;;;0.10;;
74650;SDS011;63169;46.042;14.592;2023-03-15T13:24:21;2.40;;;0.35;;
74650;SDS011;63169;46.042;14.592;2023-03-15T13:26:58;1.83;;;0.20;;
74650;SDS011;63169;46.042;14.592;2023-03-15T13:29:29;3.38;;;0.32;;
74650;SDS011;63169;46.042;14.592;2023-03-15T13:31:58;4.38;;;0.40;;
74650;SDS011;63169;46.042;14.592;2023-03-15T13:34:35;4.78;;;1.35;;
74650;SDS011;63169;46.042;14.592;2023-03-15T13:37:00;2.13;;;0.05;;
74650;SDS011;63169;46.042;14.592;2023-03-15T13:44:26;2.20;;;0.30;;
74650;SDS011;63169;46.042;14.592;2023-03-15T13:46:52;2.17;;;0.60;;
74650;SDS011;63169;46.042;14.592;2023-03-15T13:49:19;5.25;;;0.80;;
74650;SDS011;63169;46.042;14.592;2023-03-15T13:51:45;2.63;;;0.70;;
74650;SDS011;63169;46.042;14.592;2023-03-15T13:54:13;6.40;;;2.00;;
74650;SDS011;63169;46.042;14.592;2023-03-15T13:59:25;2.70;;;0.55;;
74650;SDS011;63169;46.042;14.592;2023-03-15T14:01:54;1.48;;;0.30;;
74650;SDS011;63169;46.042;14.592;2023-03-15T14:06:49;1.77;;;0.28;;
74650;SDS011;63169;46.042;14.592;2023-03-15T14:09:19;1.20;;;0.20;;
74650;SDS011;63169;46.042;14.592;2023-03-15T14:11:59;1.10;;;0.40;;
74650;SDS011;63169;46.042;14.592;2023-03-15T14:14:29;3.70;;;0.30;;
74650;SDS011;63169;46.042;14.592;2023-03-15T14:16:56;1.33;;;0.30;;
74650;SDS011;63169;46.042;14.592;2023-03-15T14:21:56;1.70;;;0.40;;
74650;SDS011;63169;46.042;14.592;2023-03-15T14:26:56;3.88;;;0.10;;
74650;SDS011;63169;46.042;14.592;2023-03-15T14:29:27;2.40;;;1.15;;
74650;SDS011;63169;46.042;14.592;2023-03-15T14:31:58;2.85;;;0.20;;
74650;SDS011;63169;46.042;14.592;2023-03-15T14:39:25;3.45;;;0.32;;
74650;SDS011;63169;46.042;14.592;2023-03-15T14:41:53;1.77;;;0.30;;
74650;SDS011;63169;46.042;14.592;2023-03-15T14:44:18;2.78;;;0.45;;
74650;SDS011;63169;46.042;14.592;2023-03-15T14:46:44;2.30;;;0.32;;
74650;SDS011;63169;46.042;14.592;2023-03-15T14:49:11;1.67;;;0.20;;
74650;SDS011;63169;46.042;14.592;2023-03-15T14:51:37;0.77;;;0.10;;
74650;SDS011;63169;46.042;14.592;2023-03-15T14:54:03;1.35;;;0.52;;
74650;SDS011;63169;46.042;14.592;2023-03-15T14:56:28;1.08;;;0.22;;
74650;SDS011;63169;46.042;14.592;2023-03-15T14:58:54;1.00;;;0.20;;
74650;SDS011;63169;46.042;14.592;2023-03-15T15:01:20;1.15;;;0.82;;
74650;SDS011;63169;46.042;14.592;2023-03-15T15:03:52;1.42;;;0.30;;
74650;SDS011;63169;46.042;14.592;2023-03-15T15:06:22;1.60;;;0.10;;
74650;SDS011;63169;46.042;14.592;2023-03-15T15:08:48;1.40;;;0.10;;
74650;SDS011;63169;46.042;14.592;2023-03-15T15:11:17;2.10;;;0.20;;
74650;SDS011;63169;46.042;14.592;2023-03-15T15:13:42;1.25;;;0.55;;
74650;SDS011;63169;46.042;14.592;2023-03-15T15:16:07;1.63;;;0.32;;
74650;SDS011;63169;46.042;14.592;2023-03-15T15:18:33;3.20;;;0.38;;
74650;SDS011;63169;46.042;14.592;2023-03-15T15:21:01;10.27;;;2.22;;
74650;SDS011;63169;46.042;14.592;2023-03-15T15:23:43;4.10;;;1.85;;
74650;SDS011;63169;46.042;14.592;2023-03-15T15:26:13;3.97;;;0.65;;
74650;SDS011;63169;46.042;14.592;2023-03-15T15:28:42;9.35;;;0.80;;
74650;SDS011;63169;46.042;14.592;2023-03-15T15:31:09;6.88;;;0.57;;
74650;SDS011;63169;46.042;14.592;2023-03-15T15:33:39;2.45;;;0.20;;
74650;SDS011;63169;46.042;14.592;2023-03-15T15:36:09;4.22;;;0.47;;
74650;SDS011;63169;46.042;14.592;2023-03-15T15:38:38;6.07;;;2.25;;
74650;SDS011;63169;46.042;14.592;2023-03-15T15:41:04;3.00;;;1.08;;
74650;SDS011;63169;46.042;14.592;2023-03-15T15:45:56;2.33;;;0.20;;
74650;SDS011;63169;46.042;14.592;2023-03-15T15:48:21;1.33;;;0.40;;
74650;SDS011;63169;46.042;14.592;2023-03-15T15:50:46;2.05;;;0.22;;
74650;SDS011;63169;46.042;14.592;2023-03-15T15:53:14;4.32;;;0.73;;
74650;SDS011;63169;46.042;14.592;2023-03-15T15:55:40;9.02;;;3.65;;
74650;SDS011;63169;46.042;14.592;2023-03-15T15:58:08;2.30;;;1.10;;
74650;SDS011;63169;46.042;14.592;2023-03-15T16:00:34;4.07;;;0.40;;
74650;SDS011;63169;46.042;14.592;2023-03-15T16:02:59;1.23;;;0.20;;
74650;SDS011;63169;46.042;14.592;2023-03-15T16:05:25;0.93;;;0.10;;
74650;SDS011;63169;46.042;14.592;2023-03-15T16:07:52;1.00;;;0.73;;
74650;SDS011;63169;46.042;14.592;2023-03-15T16:12:51;1.38;;;0.10;;
74650;SDS011;63169;46.042;14.592;2023-03-15T16:15:17;0.85;;;0.10;;
74650;SDS011;63169;46.042;14.592;2023-03-15T16:17:43;1.40;;;0.35;;
74650;SDS011;63169;46.042;14.592;2023-03-15T16:20:09;0.45;;;0.13;;
74650;SDS011;63169;46.042;14.592;2023-03-15T16:22:36;1.80;;;0.20;;
74650;SDS011;63169;46.042;14.592;2023-03-15T16:27:29;1.33;;;0.22;;
74650;SDS011;63169;46.042;14.592;2023-03-15T16:29:54;1.17;;;0.77;;
74650;SDS011;63169;46.042;14.592;2023-03-15T16:32:23;0.70;;;0.10;;
74650;SDS011;63169;46.042;14.592;2023-03-15T16:34:50;1.30;;;0.47;;
74650;SDS011;63169;46.042;14.592;2023-03-15T16:37:18;1.55;;;0.13;;
74650;SDS011;63169;46.042;14.592;2023-03-15T16:39:48;1.42;;;0.15;;